In Rescue
 
Open Full Screen Window  High Contrast Mode
July 24, 2024 4:34 PM EDT
Weather Information
Wind Direction
  ---
Wind Speed
  00 kt (0 mph)
Wind Gust
  00 kt (0 mph)
Altimeter
30.08 in
Visibility
10 SM
Temperature
22° C
72° F
Dewpoint
15° C
59° F
Humidity
65%
1hr Rain Fall
00.00 in.
24hr Rain Fall
00.24 in.
Sky Condition
Broken @ 4,300 ft
Scattered @ 2,900 ft
Scattered @ 2,300 ft
VFR

METAR KDRM 242034Z AUTO 00000KT 10SM SCT023 SCT029 BKN043 22/15 A3008 RMK AO2 T02180154

FAA Disclaimer: The data displayed is for advisory purposes only and is not to be used for flight planning or operations.